Terminal Aerodrome Forecast
Issued by NWS Jackson, MS

Home | Current Version | Previous Version | Text Only | Print | Product List | Glossary On
Versions: 1 2 3 4 5 6 7 8 9 10 11 12
650
FTUS44 KJAN 091120
TAFGWO
TAF
KGWO 091120Z 0912/1012 27008KT P6SM SKC
     FM091400 29011G17KT P6SM SKC
     FM091600 30016G22KT P6SM SCT050
     FM091800 30018G25KT P6SM BKN050
     FM100000 33006KT P6SM SKC=

USA.gov is the U.S. government's official web portal to all federal, state and local government web resources and services.